createdAt,value
2017-08-30T00:02:10.449Z,18.27
2017-08-30T00:04:38.877Z,20.10
2017-08-30T00:07:06.602Z,19.40
2017-08-30T00:09:34.195Z,19.10
2017-08-30T00:12:02.234Z,19.10
2017-08-30T00:14:29.907Z,19.13
2017-08-30T00:16:57.497Z,19.80
2017-08-30T00:19:25.097Z,19.50
2017-08-30T00:21:52.712Z,19.33
2017-08-30T00:24:43.642Z,19.17
2017-08-30T00:27:11.223Z,19.00
2017-08-30T00:29:38.823Z,19.60
2017-08-30T00:32:06.424Z,20.70
2017-08-30T00:34:34.023Z,20.47
2017-08-30T00:37:01.674Z,17.33
2017-08-30T00:39:29.251Z,19.07
2017-08-30T00:41:56.911Z,19.17
2017-08-30T00:44:24.503Z,19.10
2017-08-30T00:46:53.163Z,18.90
2017-08-30T00:49:20.766Z,19.43
2017-08-30T00:51:49.282Z,19.13
2017-08-30T00:54:16.891Z,19.00
2017-08-30T00:56:44.468Z,18.40
2017-08-30T00:59:12.055Z,19.47
2017-08-30T01:01:39.673Z,18.53
2017-08-30T01:04:07.271Z,19.83
2017-08-30T01:06:36.651Z,18.80
2017-08-30T01:09:04.265Z,19.43
2017-08-30T01:11:31.868Z,18.30
2017-08-30T01:13:59.468Z,19.90
2017-08-30T01:16:27.062Z,19.97
2017-08-30T01:18:54.662Z,19.70
2017-08-30T01:21:22.299Z,19.40
2017-08-30T01:23:49.929Z,19.97
2017-08-30T01:26:17.490Z,19.50
2017-08-30T01:28:45.090Z,19.13
2017-08-30T01:31:12.673Z,18.77
2017-08-30T01:33:40.300Z,19.53
2017-08-30T01:36:07.900Z,18.50
2017-08-30T01:38:35.474Z,19.50
2017-08-30T01:41:03.122Z,19.70
2017-08-30T01:43:31.300Z,20.10
2017-08-30T01:45:58.900Z,18.53
2017-08-30T01:48:26.502Z,19.60
2017-08-30T01:50:54.101Z,18.73
2017-08-30T01:53:21.734Z,18.60
2017-08-30T01:55:49.296Z,19.33
2017-08-30T01:58:16.901Z,19.50
2017-08-30T02:00:44.487Z,20.87
2017-08-30T02:03:12.125Z,19.10
2017-08-30T02:05:39.697Z,19.60
2017-08-30T02:08:07.452Z,20.10
2017-08-30T02:10:35.049Z,20.27
2017-08-30T02:13:02.626Z,19.90
2017-08-30T02:15:30.207Z,21.00
2017-08-30T02:17:57.809Z,19.40
2017-08-30T02:20:25.511Z,19.00
2017-08-30T02:22:53.089Z,19.23
2017-08-30T02:25:20.745Z,19.90
2017-08-30T02:27:48.318Z,19.80
2017-08-30T02:30:15.917Z,19.87
2017-08-30T02:32:43.526Z,20.10
2017-08-30T02:35:11.094Z,20.27
2017-08-30T02:37:38.696Z,20.33
2017-08-30T02:40:06.342Z,19.90
2017-08-30T02:42:33.939Z,19.00
2017-08-30T02:45:01.773Z,20.47
2017-08-30T02:47:29.366Z,19.43
2017-08-30T02:49:56.976Z,20.67
2017-08-30T02:52:24.534Z,19.93
2017-08-30T02:54:52.118Z,21.10
2017-08-30T02:57:19.675Z,20.63
2017-08-30T02:59:47.284Z,21.07
2017-08-30T03:02:14.915Z,20.20
2017-08-30T03:04:42.502Z,20.53
2017-08-30T03:07:10.185Z,20.17
2017-08-30T03:09:37.748Z,20.57
2017-08-30T03:12:05.375Z,20.93
2017-08-30T03:14:33.017Z,21.27
2017-08-30T03:17:00.637Z,21.63
2017-08-30T03:19:28.228Z,20.23
2017-08-30T03:21:55.847Z,20.80
2017-08-30T03:24:23.460Z,20.93
2017-08-30T03:26:51.086Z,20.70
2017-08-30T03:29:18.644Z,20.67
2017-08-30T03:31:46.255Z,21.00
2017-08-30T03:34:13.869Z,20.33
2017-08-30T03:36:42.406Z,21.40
2017-08-30T03:39:09.981Z,20.47
2017-08-30T03:41:37.608Z,21.20
2017-08-30T03:44:05.180Z,20.10
2017-08-30T03:46:32.800Z,20.07
2017-08-30T03:49:00.388Z,20.90
2017-08-30T03:51:27.997Z,20.03
2017-08-30T03:53:55.596Z,21.27
2017-08-30T03:56:23.166Z,21.00
2017-08-30T03:58:50.743Z,20.53
2017-08-30T04:01:18.349Z,21.80
2017-08-30T04:03:45.940Z,22.30
2017-08-30T04:06:13.598Z,21.77
2017-08-30T04:08:41.197Z,21.30
2017-08-30T04:11:08.765Z,21.20
2017-08-30T04:13:36.349Z,21.47
2017-08-30T04:16:03.942Z,21.50
2017-08-30T04:18:31.520Z,20.13
2017-08-30T04:20:59.131Z,21.13
2017-08-30T04:23:26.748Z,21.70
2017-08-30T04:25:54.347Z,21.93
2017-08-30T04:28:21.959Z,22.07
2017-08-30T04:30:49.572Z,20.20
2017-08-30T04:33:17.151Z,21.57
2017-08-30T04:35:44.746Z,21.57
2017-08-30T04:38:12.336Z,19.97
2017-08-30T04:40:39.930Z,20.63
2017-08-30T04:43:07.520Z,20.90
2017-08-30T04:45:35.102Z,20.33
2017-08-30T04:48:02.712Z,21.03
2017-08-30T04:50:30.327Z,21.10
2017-08-30T04:52:57.969Z,20.83
2017-08-30T04:55:25.578Z,20.13
2017-08-30T04:57:53.175Z,21.30
2017-08-30T05:00:20.757Z,21.77
2017-08-30T05:02:48.384Z,21.23
2017-08-30T05:05:15.953Z,21.67
2017-08-30T05:07:43.539Z,21.77
2017-08-30T05:10:11.969Z,22.10
2017-08-30T05:12:39.557Z,20.97
2017-08-30T05:15:07.175Z,20.90
2017-08-30T05:17:34.738Z,20.70
2017-08-30T05:20:02.335Z,20.70
2017-08-30T05:22:29.907Z,21.63
2017-08-30T05:24:58.095Z,21.43
2017-08-30T05:27:25.697Z,20.10
2017-08-30T05:29:54.548Z,21.33
2017-08-30T05:32:22.159Z,21.17
2017-08-30T05:34:49.735Z,21.10
2017-08-30T05:37:17.323Z,21.87
2017-08-30T05:39:44.940Z,21.40
2017-08-30T05:42:12.535Z,20.80
2017-08-30T05:44:40.150Z,20.40
2017-08-30T05:47:07.820Z,20.10
2017-08-30T05:49:35.429Z,21.47
2017-08-30T05:52:03.018Z,20.87
2017-08-30T05:54:30.622Z,21.00
2017-08-30T05:56:58.211Z,19.60
2017-08-30T05:59:25.828Z,19.90
2017-08-30T06:01:53.452Z,20.83
2017-08-30T06:04:21.026Z,20.87
2017-08-30T06:06:48.639Z,19.23
2017-08-30T06:09:16.278Z,20.10
2017-08-30T06:11:43.913Z,20.43
2017-08-30T06:14:11.467Z,20.57
2017-08-30T06:16:39.076Z,20.93
2017-08-30T06:19:06.650Z,20.30
2017-08-30T06:21:34.270Z,20.60
2017-08-30T06:24:02.110Z,20.00
2017-08-30T06:26:29.732Z,21.00
2017-08-30T06:28:57.349Z,18.50
2017-08-30T06:31:25.408Z,18.67
2017-08-30T06:33:53.012Z,19.70
2017-08-30T06:36:20.706Z,18.80
2017-08-30T06:38:48.901Z,18.50
2017-08-30T06:41:16.471Z,17.70
2017-08-30T06:43:44.050Z,17.83
2017-08-30T06:46:11.653Z,18.20
2017-08-30T06:48:39.250Z,17.07
2017-08-30T06:51:06.823Z,17.63
2017-08-30T06:53:35.395Z,17.77
2017-08-30T06:56:03.812Z,17.70
2017-08-30T06:58:31.385Z,17.30
2017-08-30T07:00:58.996Z,18.07
2017-08-30T07:03:26.621Z,18.00
2017-08-30T07:05:54.198Z,18.47
2017-08-30T07:08:21.776Z,19.57
2017-08-30T07:10:49.390Z,19.20
2017-08-30T07:13:16.993Z,19.37
2017-08-30T07:15:44.588Z,20.03
2017-08-30T07:18:12.217Z,19.13
2017-08-30T07:20:39.834Z,19.70
2017-08-30T07:23:07.426Z,19.47
2017-08-30T07:25:35.008Z,20.03
2017-08-30T07:28:02.612Z,20.23
2017-08-30T07:30:30.212Z,18.73
2017-08-30T07:32:58.292Z,19.37
2017-08-30T07:35:25.927Z,19.13
2017-08-30T07:37:53.502Z,19.17
2017-08-30T07:40:21.115Z,18.40
2017-08-30T07:42:48.739Z,19.13
2017-08-30T07:45:16.377Z,18.60
2017-08-30T07:47:43.970Z,19.40
2017-08-30T07:50:11.553Z,20.37
2017-08-30T07:52:39.162Z,18.80
2017-08-30T07:55:08.098Z,20.23
2017-08-30T07:57:35.737Z,19.77
2017-08-30T08:00:03.500Z,17.80
2017-08-30T08:02:31.757Z,20.97
2017-08-30T08:05:00.661Z,20.03
2017-08-30T08:07:28.257Z,19.13
2017-08-30T08:09:55.815Z,20.70
2017-08-30T08:12:23.411Z,19.33
2017-08-30T08:14:50.987Z,17.67
2017-08-30T08:17:19.838Z,19.33
2017-08-30T08:19:47.419Z,19.07
2017-08-30T08:22:15.014Z,18.67
2017-08-30T08:24:42.584Z,19.07
2017-08-30T08:27:10.149Z,18.50
2017-08-30T08:29:37.722Z,17.77
2017-08-30T08:32:05.310Z,20.00
2017-08-30T08:34:32.942Z,18.93
2017-08-30T08:37:00.561Z,17.33
2017-08-30T08:39:29.115Z,17.23
2017-08-30T08:41:56.710Z,17.53
2017-08-30T08:44:24.874Z,17.80
2017-08-30T08:46:52.451Z,17.37
2017-08-30T08:49:20.046Z,16.80
2017-08-30T08:51:48.362Z,16.10
2017-08-30T08:54:15.941Z,15.27
2017-08-30T08:56:43.546Z,16.63
2017-08-30T08:59:11.140Z,15.60
2017-08-30T09:01:38.728Z,15.73
2017-08-30T09:04:06.341Z,16.13
2017-08-30T09:06:33.950Z,16.03
2017-08-30T09:09:01.532Z,15.60
2017-08-30T09:11:29.127Z,14.87
2017-08-30T09:13:56.699Z,15.03
2017-08-30T09:16:24.289Z,14.23
2017-08-30T09:18:51.862Z,13.90
2017-08-30T09:21:19.483Z,13.97
2017-08-30T09:23:47.055Z,14.60
2017-08-30T09:26:14.643Z,15.27
2017-08-30T09:28:42.230Z,14.60
2017-08-30T09:31:09.826Z,12.57
2017-08-30T09:33:37.388Z,12.77
2017-08-30T09:36:04.972Z,12.83
2017-08-30T09:38:32.563Z,12.10
2017-08-30T09:41:00.155Z,12.50
2017-08-30T09:43:27.769Z,11.90
2017-08-30T09:45:55.375Z,12.10
2017-08-30T09:48:22.939Z,12.70
2017-08-30T09:50:50.540Z,12.23
2017-08-30T09:53:18.134Z,12.30
2017-08-30T09:55:45.688Z,12.50
2017-08-30T09:58:13.282Z,12.77
2017-08-30T10:00:40.872Z,12.27
2017-08-30T10:03:08.472Z,11.67
2017-08-30T10:05:36.088Z,12.10
2017-08-30T10:08:04.446Z,12.40
2017-08-30T10:10:32.564Z,11.50
2017-08-30T10:13:00.141Z,11.67
2017-08-30T10:15:29.490Z,12.20
2017-08-30T10:17:58.431Z,12.70
2017-08-30T10:20:26.248Z,10.73
2017-08-30T10:22:54.764Z,11.00
2017-08-30T10:25:22.362Z,10.43
2017-08-30T10:27:49.960Z,10.63
2017-08-30T10:30:17.580Z,11.03
2017-08-30T10:32:45.209Z,11.20
2017-08-30T10:35:12.792Z,10.50
2017-08-30T10:37:40.407Z,11.37
2017-08-30T10:40:07.983Z,10.13
2017-08-30T10:42:35.546Z,10.20
2017-08-30T10:45:04.155Z,10.00
2017-08-30T10:47:31.736Z,8.63
2017-08-30T10:49:59.347Z,9.40
2017-08-30T10:52:26.908Z,9.80
2017-08-30T10:54:54.518Z,9.27
2017-08-30T10:57:22.108Z,8.40
2017-08-30T10:59:49.694Z,9.03
2017-08-30T11:02:17.286Z,9.67
2017-08-30T11:04:44.888Z,8.80
2017-08-30T11:07:12.930Z,8.73
2017-08-30T11:09:40.498Z,9.60
2017-08-30T11:12:08.071Z,8.40
2017-08-30T11:14:36.721Z,9.93
2017-08-30T11:17:04.302Z,9.40
2017-08-30T11:19:31.938Z,8.93
2017-08-30T11:22:01.293Z,9.87
2017-08-30T11:24:28.912Z,9.60
2017-08-30T11:26:56.503Z,9.73
2017-08-30T11:29:24.090Z,9.90
2017-08-30T11:31:51.687Z,10.23
2017-08-30T11:34:19.255Z,10.13
2017-08-30T11:36:46.891Z,9.37
2017-08-30T11:39:14.452Z,9.33
2017-08-30T11:41:42.043Z,9.93
2017-08-30T11:44:09.778Z,8.97
2017-08-30T11:46:37.392Z,9.00
2017-08-30T11:49:04.970Z,8.70
2017-08-30T11:51:32.587Z,8.77
2017-08-30T11:54:01.091Z,9.20
2017-08-30T11:56:28.689Z,9.00
2017-08-30T11:58:56.316Z,8.63
2017-08-30T12:01:23.926Z,9.40
2017-08-30T12:03:51.500Z,8.63
2017-08-30T12:06:19.167Z,8.40
2017-08-30T12:08:46.772Z,9.13
2017-08-30T12:11:14.347Z,9.93
2017-08-30T12:13:41.935Z,9.60
2017-08-30T12:16:09.556Z,8.60
2017-08-30T12:18:37.151Z,8.93
2017-08-30T12:21:04.768Z,8.83
2017-08-30T12:23:32.390Z,9.57
2017-08-30T12:25:59.963Z,8.60
2017-08-30T12:28:27.561Z,8.10
2017-08-30T12:30:55.144Z,8.20
2017-08-30T12:33:22.742Z,7.67
2017-08-30T12:35:50.332Z,8.30
2017-08-30T12:38:34.736Z,7.07
2017-08-30T12:41:02.407Z,7.80
2017-08-30T12:43:30.008Z,7.73
2017-08-30T12:45:57.627Z,7.40
2017-08-30T12:48:25.196Z,7.80
2017-08-30T12:50:52.775Z,8.37
2017-08-30T12:53:20.392Z,7.80
2017-08-30T12:55:47.988Z,7.40
2017-08-30T12:58:15.570Z,7.50
2017-08-30T13:00:43.142Z,7.90
2017-08-30T13:03:10.713Z,7.40
2017-08-30T13:05:38.271Z,7.00
2017-08-30T13:08:05.864Z,8.23
2017-08-30T13:10:33.445Z,7.40
2017-08-30T13:13:01.071Z,7.40
2017-08-30T13:15:28.730Z,7.80
2017-08-30T13:17:57.768Z,7.40
2017-08-30T13:20:25.345Z,8.13
2017-08-30T13:22:52.939Z,7.53
2017-08-30T13:25:20.540Z,8.17
2017-08-30T13:27:48.107Z,8.00
2017-08-30T13:30:15.688Z,8.80
2017-08-30T13:32:43.340Z,9.03
2017-08-30T13:35:10.941Z,9.03
2017-08-30T13:37:38.541Z,8.00
2017-08-30T13:40:06.201Z,8.27
2017-08-30T13:42:33.917Z,8.03
2017-08-30T13:45:01.535Z,7.90
2017-08-30T13:47:29.119Z,8.40
2017-08-30T13:49:56.762Z,7.80
2017-08-30T13:52:24.405Z,8.10
2017-08-30T13:54:52.009Z,7.97
2017-08-30T13:57:19.887Z,7.50
2017-08-30T13:59:47.487Z,7.63
2017-08-30T14:02:15.116Z,8.83
2017-08-30T14:04:42.722Z,7.90
2017-08-30T14:07:11.196Z,7.13
2017-08-30T14:09:38.813Z,7.70
2017-08-30T14:12:12.249Z,7.57
2017-08-30T14:14:39.836Z,8.03
2017-08-30T14:17:07.412Z,7.60
2017-08-30T14:19:35.049Z,7.30
2017-08-30T14:22:02.634Z,7.40
2017-08-30T14:24:30.275Z,7.27
2017-08-30T14:26:57.867Z,7.70
2017-08-30T14:29:25.480Z,7.83
2017-08-30T14:31:53.059Z,7.87
2017-08-30T14:34:20.652Z,7.10
2017-08-30T14:36:48.265Z,7.07
2017-08-30T14:39:15.888Z,7.70
2017-08-30T14:41:43.703Z,7.47
2017-08-30T14:44:11.305Z,7.47
2017-08-30T14:46:38.921Z,7.00
2017-08-30T14:49:06.521Z,6.20
2017-08-30T14:51:34.135Z,7.00
2017-08-30T14:54:01.725Z,7.67
2017-08-30T14:56:29.291Z,6.97
2017-08-30T14:58:56.894Z,7.03
2017-08-30T15:01:24.484Z,7.30
2017-08-30T15:03:53.120Z,7.10
2017-08-30T15:06:20.842Z,7.40
2017-08-30T15:08:48.868Z,7.80
2017-08-30T15:11:16.556Z,8.27
2017-08-30T15:13:44.206Z,7.00
2017-08-30T15:16:12.155Z,7.80
2017-08-30T15:18:39.797Z,7.87
2017-08-30T15:21:07.379Z,8.30
2017-08-30T15:23:34.980Z,7.40
2017-08-30T15:26:02.580Z,8.00
2017-08-30T15:28:30.168Z,8.50
2017-08-30T15:30:58.335Z,7.77
2017-08-30T15:33:25.957Z,7.87
2017-08-30T15:35:53.541Z,7.90
2017-08-30T15:38:21.191Z,8.30
2017-08-30T15:40:48.776Z,7.63
2017-08-30T15:43:16.362Z,8.90
2017-08-30T15:45:43.998Z,8.33
2017-08-30T15:48:11.588Z,8.30
2017-08-30T15:50:39.212Z,8.67
2017-08-30T15:53:06.835Z,9.20
2017-08-30T15:55:34.436Z,8.53
2017-08-30T15:58:02.028Z,9.00
2017-08-30T16:00:29.621Z,8.47
2017-08-30T16:02:57.211Z,9.60
2017-08-30T16:05:24.845Z,7.90
2017-08-30T16:07:52.979Z,6.70
2017-08-30T16:10:22.459Z,7.30
2017-08-30T16:12:50.055Z,6.87
2017-08-30T16:15:17.659Z,7.33
2017-08-30T16:17:45.235Z,7.07
2017-08-30T16:20:13.681Z,6.70
2017-08-30T16:22:41.281Z,6.30
2017-08-30T16:25:08.849Z,6.37
2017-08-30T16:27:36.458Z,6.33
2017-08-30T16:30:04.059Z,7.30
2017-08-30T16:32:31.663Z,7.03
2017-08-30T16:34:59.229Z,7.17
2017-08-30T16:37:26.858Z,7.30
2017-08-30T16:39:54.447Z,7.73
2017-08-30T16:42:22.064Z,6.90
2017-08-30T16:44:49.654Z,7.37
2017-08-30T16:47:17.235Z,6.80
2017-08-30T16:49:44.842Z,7.30
2017-08-30T16:52:12.414Z,7.17
2017-08-30T16:54:40.043Z,7.90
2017-08-30T16:57:08.420Z,6.70
2017-08-30T16:59:36.029Z,7.77
2017-08-30T17:02:03.682Z,7.03
2017-08-30T17:04:31.297Z,7.07
2017-08-30T17:06:58.902Z,7.43
2017-08-30T17:09:26.476Z,7.67
2017-08-30T17:11:54.119Z,8.70
2017-08-30T17:14:21.687Z,8.20
2017-08-30T17:16:49.274Z,8.80
2017-08-30T17:19:16.841Z,9.50
2017-08-30T17:21:44.436Z,10.27
2017-08-30T17:24:12.012Z,8.23
2017-08-30T17:26:39.588Z,8.20
2017-08-30T17:29:07.214Z,7.47
2017-08-30T17:31:34.791Z,8.70
2017-08-30T17:34:03.051Z,9.60
2017-08-30T17:36:30.653Z,11.50
2017-08-30T17:38:58.264Z,9.73
2017-08-30T17:41:25.857Z,9.60
2017-08-30T17:43:53.491Z,8.20
2017-08-30T17:46:21.110Z,7.50
2017-08-30T17:48:48.716Z,7.40
2017-08-30T17:51:16.304Z,6.80
2017-08-30T17:53:43.983Z,7.30
2017-08-30T17:56:11.638Z,7.00
2017-08-30T17:58:39.259Z,7.43
2017-08-30T18:01:06.888Z,7.13
2017-08-30T18:03:34.499Z,7.10
2017-08-30T18:06:02.101Z,6.83
2017-08-30T18:08:29.748Z,5.93
2017-08-30T18:10:57.386Z,6.00
2017-08-30T18:13:25.019Z,6.43
2017-08-30T18:15:52.613Z,6.23
2017-08-30T18:18:20.248Z,5.70
2017-08-30T18:20:48.189Z,5.23
2017-08-30T18:23:15.831Z,5.57
2017-08-30T18:25:43.412Z,5.13
2017-08-30T18:28:11.016Z,5.20
2017-08-30T18:30:38.656Z,4.90
2017-08-30T18:33:06.273Z,5.00
2017-08-30T18:35:33.859Z,5.03
2017-08-30T18:38:01.430Z,4.87
2017-08-30T18:40:29.061Z,5.40
2017-08-30T18:42:56.631Z,5.00
2017-08-30T18:45:24.222Z,5.80
2017-08-30T18:47:51.832Z,4.87
2017-08-30T18:50:19.460Z,4.30
2017-08-30T18:52:47.131Z,4.70
2017-08-30T18:55:14.746Z,5.30
2017-08-30T18:57:42.339Z,4.40
2017-08-30T19:00:09.969Z,4.37
2017-08-30T19:02:37.566Z,4.60
2017-08-30T19:05:05.195Z,4.43
2017-08-30T19:07:32.792Z,4.60
2017-08-30T19:10:01.161Z,4.47
2017-08-30T19:12:28.760Z,5.20
2017-08-30T19:14:56.405Z,4.50
2017-08-30T19:17:24.006Z,5.17
2017-08-30T19:19:51.637Z,4.60
2017-08-30T19:22:19.231Z,4.73
2017-08-30T19:24:46.810Z,4.17
2017-08-30T19:27:15.395Z,4.77
2017-08-30T19:29:43.950Z,4.83
2017-08-30T19:32:11.589Z,3.77
2017-08-30T19:34:39.198Z,4.23
2017-08-30T19:37:06.815Z,3.80
2017-08-30T19:39:34.423Z,4.20
2017-08-30T19:42:02.051Z,4.40
2017-08-30T19:44:29.619Z,3.90
2017-08-30T19:46:58.049Z,4.23
2017-08-30T19:49:25.615Z,4.67
2017-08-30T19:51:53.214Z,4.50
2017-08-30T19:54:20.806Z,4.03
2017-08-30T19:56:48.400Z,4.20
2017-08-30T19:59:15.995Z,4.67
2017-08-30T20:01:43.669Z,5.07
2017-08-30T20:04:11.292Z,4.80
2017-08-30T20:06:38.843Z,4.90
2017-08-30T20:09:06.412Z,5.50
2017-08-30T20:11:34.006Z,5.30
2017-08-30T20:14:01.575Z,5.70
2017-08-30T20:16:29.828Z,5.60
2017-08-30T20:18:57.444Z,5.70
2017-08-30T20:21:25.282Z,5.70
2017-08-30T20:23:52.879Z,5.43
2017-08-30T20:26:20.488Z,5.97
2017-08-30T20:28:48.439Z,5.80
2017-08-30T20:31:16.015Z,5.40
2017-08-30T20:33:43.630Z,5.97
2017-08-30T20:36:11.247Z,5.40
2017-08-30T20:38:38.850Z,5.73
2017-08-30T20:41:06.434Z,5.73
2017-08-30T20:43:35.887Z,5.63
2017-08-30T20:46:03.498Z,5.30
2017-08-30T20:48:31.059Z,6.60
2017-08-30T20:50:58.621Z,6.03
2017-08-30T20:53:26.211Z,5.50
2017-08-30T20:55:54.581Z,5.57
2017-08-30T20:58:22.154Z,5.70
2017-08-30T21:00:49.739Z,5.80
2017-08-30T21:03:17.313Z,5.17
2017-08-30T21:05:44.894Z,5.73
2017-08-30T21:08:12.484Z,5.90
2017-08-30T21:10:40.072Z,5.57
2017-08-30T21:13:07.678Z,7.23
2017-08-30T21:15:35.254Z,6.50
2017-08-30T21:18:03.550Z,7.50
2017-08-30T21:20:31.127Z,7.23
2017-08-30T21:22:58.711Z,7.50
2017-08-30T21:25:26.294Z,8.90
2017-08-30T21:27:53.859Z,8.47
2017-08-30T21:30:21.483Z,8.57
2017-08-30T21:32:49.043Z,7.73
2017-08-30T21:35:16.638Z,8.07
2017-08-30T21:37:44.260Z,8.03
2017-08-30T21:40:11.829Z,7.70
2017-08-30T21:42:39.425Z,8.37
2017-08-30T21:45:07.036Z,7.90
2017-08-30T21:47:34.644Z,8.13
2017-08-30T21:50:02.274Z,8.50
2017-08-30T21:52:29.903Z,7.60
2017-08-30T21:54:57.535Z,7.37
2017-08-30T21:57:25.129Z,7.60
2017-08-30T21:59:52.682Z,7.73
2017-08-30T22:02:20.299Z,7.20
2017-08-30T22:04:47.940Z,8.40
2017-08-30T22:07:15.538Z,7.50
2017-08-30T22:09:43.104Z,7.90
2017-08-30T22:12:10.683Z,8.20
2017-08-30T22:14:39.185Z,7.40
2017-08-30T22:17:06.762Z,7.00
2017-08-30T22:19:34.376Z,7.23
2017-08-30T22:22:01.970Z,7.10
2017-08-30T22:24:29.547Z,7.77
2017-08-30T22:26:57.104Z,7.60
2017-08-30T22:29:24.726Z,7.40
2017-08-30T22:31:52.307Z,7.10
2017-08-30T22:34:19.913Z,6.53
2017-08-30T22:36:48.146Z,7.13
2017-08-30T22:39:15.724Z,6.80
2017-08-30T22:41:43.311Z,6.80
2017-08-30T22:44:10.899Z,5.93
2017-08-30T22:46:38.488Z,6.30
2017-08-30T22:49:06.079Z,6.70
2017-08-30T22:51:33.675Z,6.97
2017-08-30T22:54:02.370Z,6.03
2017-08-30T22:56:29.921Z,5.80
2017-08-30T22:58:58.403Z,5.80
2017-08-30T23:01:25.949Z,5.63
2017-08-30T23:03:54.519Z,5.20
2017-08-30T23:06:22.121Z,5.73
2017-08-30T23:08:49.701Z,5.50
2017-08-30T23:11:17.295Z,5.00
2017-08-30T23:13:44.896Z,5.57
2017-08-30T23:16:12.461Z,4.90
2017-08-30T23:18:40.047Z,5.20
2017-08-30T23:21:07.650Z,5.60
2017-08-30T23:23:35.221Z,5.50
2017-08-30T23:26:02.840Z,5.70
2017-08-30T23:28:30.397Z,6.07
2017-08-30T23:30:57.998Z,5.50
2017-08-30T23:33:26.437Z,5.17
2017-08-30T23:35:54.055Z,6.00
2017-08-30T23:38:21.635Z,5.87
2017-08-30T23:40:49.211Z,5.60
2017-08-30T23:43:16.804Z,6.03
2017-08-30T23:45:44.357Z,6.17
2017-08-30T23:48:11.966Z,5.73
2017-08-30T23:50:39.522Z,6.00
2017-08-30T23:53:07.129Z,6.13
2017-08-30T23:55:34.708Z,6.03
2017-08-30T23:58:02.284Z,6.33
